KVLD/VLD METAR and TAF weather

Enter ICAO airport designator
Station Type Date Time Source
KVLD METAR 2020/07/05 03:53 UTC NOAA

KVLD 050353Z AUTO 00000KT 5SM BR CLR 23/22 A2993 RMK AO2 SLP141 T02330217


Station Type Date Time Source
KVLD Decoded METAR 2020/07/05 03:53 UTC NOAA

VALDOSTA REGIONAL AIRPORT, GA, United States (KVLD) 30-47N 083-16W
Jul 04, 2020 - 11:53 PM EDT / 2020.07.05 0353 UTC
Wind: Calm:0
Visibility: 5 mile(s):0
Sky conditions: clear
Weather: mist
Temperature: 73.9 F (23.3 C)
Dew Point: 71.1 F (21.7 C)
Relative Humidity: 90%
Pressure (altimeter): 29.93 in. Hg (1013 hPa)
ob: KVLD 050353Z AUTO 00000KT 5SM BR CLR 23/22 A2993 RMK AO2 SLP141 T02330217
cycle: 4

Station Type Date Time Source
KVLD TAF 2020/07/04 18:22 UTC NOAA

TAF KVLD 041720Z 0418/0518 13005KT 4SM TSRA BKN030CB
FM042300 12003KT P6SM BKN060
FM051000 VRB02KT 5SM BR BKN009
FM051400 13004KT P6SM BKN025

Example: see airport list